Time;durP1;ratioP1;P1;durP2;ratioP2;P2;SDS_P1;SDS_P2;PMS_P1;PMS_P2;Temp;Humidity;BMP_temperature;BMP_pressure;BME280_temperature;BME280_humidity;BME280_pressure;Samples;Min_cycle;Max_cycle;Signal;HPM_P1;HPM_P2
2022/08/14 00:01:22;;;;;;;0.40;0.40;;;20.00;99.90;;;20.07;75.70;100026.78;4955471;28;20581;-64
2022/08/14 00:04:11;;;;;;;0.40;0.40;;;20.30;99.90;;;20.10;78.94;100069.63;4955976;28;20207;-64
2022/08/14 00:07:19;;;;;;;0.40;0.40;;;;;;;19.91;79.42;100077.44;4951703;28;20219;-64
2022/08/14 00:10:15;;;;;;;0.50;0.50;;;20.20;99.90;;;19.97;78.30;100074.56;4963291;28;20212;-64
2022/08/14 00:13:28;;;;;;;0.52;0.52;;;19.90;99.90;;;19.85;79.30;100083.03;4940807;28;20193;-64
2022/08/14 00:16:18;;;;;;;0.30;0.30;;;19.70;99.90;;;19.98;77.26;100079.00;4958944;28;20236;-64
2022/08/14 00:19:26;;;;;;;0.30;0.30;;;;;;;19.91;80.20;100096.25;4976744;28;20200;-64
2022/08/14 00:22:17;;;;;;;0.30;0.30;;;;;;;19.89;82.23;100127.63;4962944;28;20215;-64
2022/08/14 00:25:26;;;;;;;0.22;0.22;;;19.70;99.90;;;19.47;83.78;100136.09;4965308;28;20224;-64
2022/08/14 00:28:28;;;;;;;0.40;0.40;;;19.40;99.90;;;19.56;82.34;100132.31;4960714;28;20209;-64
2022/08/14 00:31:22;;;;;;;0.20;0.20;;;;;;;19.70;82.46;100146.13;4974396;28;20197;-64
2022/08/14 00:34:30;;;;;;;0.30;0.30;;;19.20;99.90;;;19.61;82.16;100162.53;4960502;28;20197;-64
2022/08/14 00:37:33;;;;;;;0.30;0.30;;;19.60;99.90;;;19.50;82.82;100140.47;4961777;28;20204;-64
2022/08/14 00:40:23;;;;;;;0.20;0.20;;;19.00;99.90;;;19.98;79.47;100191.72;4961151;28;20235;-64
2022/08/14 00:43:23;;;;;;;0.43;0.43;;;;;;;20.11;78.89;100194.88;4972342;28;20695;-64
2022/08/14 00:46:19;;;;;;;0.32;0.32;;;19.70;99.90;;;20.33;78.03;100195.00;4970794;28;20732;-64
2022/08/14 00:49:19;;;;;;;0.20;0.20;;;20.00;99.90;;;20.02;80.98;100189.81;4967011;28;20573;-64
2022/08/14 00:52:12;;;;;;;0.30;0.30;;;19.80;99.90;;;19.79;80.25;100169.09;4984831;28;20204;-64
2022/08/14 00:55:02;;;;;;;0.17;0.17;;;;;;;19.79;80.38;100164.63;4966914;28;20235;-64
2022/08/14 00:58:29;;;;;;;0.20;0.20;;;19.60;99.90;;;19.84;81.53;100183.25;4960991;28;20204;-64
2022/08/14 01:01:10;;;;;;;0.40;0.40;;;19.60;99.90;;;19.59;85.43;100193.91;4961937;28;20217;-64
2022/08/14 01:04:01;;;;;;;0.20;0.20;;;20.00;99.90;;;19.59;84.07;100188.53;4973006;28;20201;-64
2022/08/14 01:06:52;;;;;;;0.10;0.10;;;19.60;99.90;;;19.59;84.82;100187.66;4969964;28;20220;-64
2022/08/14 01:09:42;;;;;;;0.20;0.20;;;;;;;19.52;83.33;100170.88;4986950;28;20209;-64
2022/08/14 01:12:32;;;;;;;0.30;0.30;;;18.90;99.90;;;19.61;84.34;100193.84;4971594;28;20223;-64
2022/08/14 01:15:27;;;;;;;0.20;0.20;;;;;;;19.33;84.54;100175.00;4959282;28;20227;-64
2022/08/14 01:21:49;;;;;;;0.30;0.30;;;;;;;19.62;84.13;100191.13;4980285;28;20243;-64
2022/08/14 01:24:41;;;;;;;0.30;0.30;;;19.30;99.90;;;19.74;83.26;100190.72;4947532;28;20212;-64
2022/08/14 01:27:31;;;;;;;0.05;0.05;;;19.70;99.90;;;19.48;86.79;100190.59;4982763;28;20201;-64
2022/08/14 01:30:40;;;;;;;0.10;0.10;;;19.30;99.90;;;19.42;85.83;100188.13;4972624;28;20200;-64
2022/08/14 01:33:29;;;;;;;0.10;0.10;;;;;;;19.29;87.00;100200.16;4959978;28;20282;-64
2022/08/14 01:36:38;;;;;;;0.10;0.10;;;;;;;19.14;88.37;100212.22;4961236;28;20251;-64
2022/08/14 01:39:27;;;;;;;0.10;0.10;;;19.00;99.90;;;19.23;86.38;100222.66;4956527;28;20209;-64
2022/08/14 01:42:19;;;;;;;0.10;0.10;;;19.10;99.90;;;19.35;85.30;100234.81;4955334;28;20220;-64
2022/08/14 01:45:19;;;;;;;0.10;0.10;;;19.10;99.90;;;19.40;85.30;100244.47;4973720;28;20217;-64
2022/08/14 01:48:13;;;;;;;0.10;0.10;;;18.90;99.90;;;19.04;86.55;100229.47;4958128;28;20549;-64
2022/08/14 01:51:01;;;;;;;0.10;0.10;;;18.80;99.90;;;19.12;86.26;100224.78;4971002;28;20204;-64
2022/08/14 01:53:57;;;;;;;0.10;0.10;;;19.00;99.90;;;19.17;85.87;100225.53;4967290;28;20568;-64
2022/08/14 01:56:46;;;;;;;0.10;0.10;;;18.90;99.90;;;19.04;87.39;100216.09;4965139;28;20225;-64
2022/08/14 01:59:43;;;;;;;0.10;0.10;;;;;;;18.92;87.63;100203.03;4954658;28;20213;-64
2022/08/14 02:02:31;;;;;;;0.10;0.10;;;18.80;99.90;;;18.95;87.68;100217.22;4956086;28;20237;-63
2022/08/14 02:05:30;;;;;;;0.10;0.10;;;18.80;99.90;;;18.86;90.72;100223.72;4969581;28;20700;-64
2022/08/14 02:08:29;;;;;;;0.10;0.10;;;18.90;99.90;;;18.65;91.55;100224.31;4955385;28;20205;-64
2022/08/14 02:11:24;;;;;;;0.10;0.10;;;18.60;99.90;;;18.31;94.33;100215.41;4959234;28;20213;-64
2022/08/14 02:14:13;;;;;;;0.00;0.00;;;18.40;99.90;;;18.13;93.40;100212.25;4971757;28;20213;-63
2022/08/14 02:17:21;;;;;;;0.10;0.10;;;18.10;99.90;;;17.84;94.12;100199.59;4957533;28;20208;-64
2022/08/14 02:20:11;;;;;;;0.40;0.40;;;18.50;99.90;;;17.92;94.30;100223.47;4961247;28;20211;-63
2022/08/14 02:23:00;;;;;;;0.30;0.30;;;18.20;99.90;;;18.06;95.24;100266.84;4965451;28;20229;-63
2022/08/14 02:25:48;;;;;;;0.10;0.10;;;17.70;99.90;;;17.97;96.13;100269.72;4956206;28;20228;-63
2022/08/14 02:28:42;;;;;;;0.20;0.20;;;17.80;99.90;;;18.15;94.92;100276.44;4958614;28;20211;-64
2022/08/14 02:31:51;;;;;;;0.30;0.30;;;18.10;99.90;;;18.21;95.44;100281.69;4949135;28;20212;-63
2022/08/14 02:34:39;;;;;;;0.20;0.20;;;18.70;99.90;;;18.32;94.93;100289.44;4963309;28;20208;-63
2022/08/14 02:37:28;;;;;;;0.20;0.20;;;18.20;99.90;;;18.34;96.08;100311.69;4973254;28;20212;-63
2022/08/14 02:40:36;;;;;;;0.30;0.30;;;;;;;18.22;98.65;100313.75;4955861;28;20263;-64
2022/08/14 02:43:31;;;;;;;0.30;0.30;;;;;;;18.27;98.39;100310.09;4953513;28;20217;-63
2022/08/14 02:46:36;;;;;;;0.30;0.30;;;18.50;99.90;;;17.82;100.00;100284.34;4962632;28;20231;-63
2022/08/14 02:49:30;;;;;;;0.20;0.20;;;17.80;99.90;;;17.62;100.00;100281.22;4955871;28;20201;-63
2022/08/14 02:52:21;;;;;;;0.40;0.40;;;;;;;17.68;100.00;100283.78;4952187;28;20587;-63
2022/08/14 02:55:31;;;;;;;0.30;0.30;;;17.90;99.90;;;17.71;100.00;100297.09;4958895;28;20227;-63
2022/08/14 02:58:22;;;;;;;0.20;0.20;;;;;;;17.97;100.00;100314.34;4963600;28;20211;-63
2022/08/14 03:01:21;;;;;;;0.20;0.20;;;17.90;99.90;;;17.73;100.00;100321.13;4985622;28;20318;-63
2022/08/14 03:04:14;;;;;;;0.40;0.40;;;17.70;99.90;;;17.42;100.00;100295.00;4969666;28;20201;-63
2022/08/14 03:07:05;;;;;;;0.30;0.30;;;;;;;17.47;100.00;100309.16;4966638;28;20206;-63
2022/08/14 03:09:55;;;;;;;0.40;0.40;;;;;;;17.38;100.00;100301.34;4939776;28;20205;-64
2022/08/14 03:13:05;;;;;;;0.30;0.30;;;17.60;99.90;;;17.45;100.00;100312.78;4956261;28;20201;-63
2022/08/14 03:16:03;;;;;;;0.20;0.20;;;17.60;99.90;;;17.53;100.00;100326.88;4971085;28;20231;-64
2022/08/14 03:18:59;;;;;;;0.25;0.25;;;17.40;99.90;;;17.69;100.00;100349.72;4969574;28;20201;-63
2022/08/14 03:21:48;;;;;;;0.25;0.25;;;16.90;99.90;;;17.63;100.00;100339.13;4958775;28;20228;-64
2022/08/14 03:24:40;;;;;;;0.20;0.20;;;17.50;99.90;;;17.32;100.00;100322.84;4959332;28;20205;-63
2022/08/14 03:27:30;;;;;;;0.10;0.10;;;16.90;99.90;;;17.49;100.00;100338.53;4972224;28;20203;-63
2022/08/14 03:30:37;;;;;;;0.20;0.20;;;17.70;99.90;;;17.62;100.00;100341.84;4972533;28;20207;-63
2022/08/14 03:33:28;;;;;;;0.40;0.40;;;;;;;17.80;100.00;100337.00;4970872;28;20196;-63
2022/08/14 03:36:30;;;;;;;0.38;0.38;;;17.00;99.90;;;17.59;100.00;100342.78;4960816;28;20228;-63
2022/08/14 03:39:38;;;;;;;0.10;0.10;;;16.80;99.90;;;17.40;100.00;100336.06;4957668;28;20205;-64
2022/08/14 03:42:28;;;;;;;0.10;0.10;;;;;;;17.65;100.00;100363.16;4959248;28;20229;-63
2022/08/14 03:45:23;;;;;;;0.20;0.20;;;;;;;17.53;100.00;100372.31;4959316;28;20239;-64
2022/08/14 03:48:22;;;;;;;0.20;0.20;;;17.80;99.90;;;17.53;100.00;100358.94;4961214;28;20208;-64
2022/08/14 03:51:18;;;;;;;0.15;0.15;;;17.30;99.90;;;17.38;100.00;100354.81;4964007;28;20209;-63
2022/08/14 03:54:07;;;;;;;0.10;0.10;;;17.60;99.90;;;17.37;100.00;100361.06;4975004;28;20212;-64
2022/08/14 03:57:03;;;;;;;0.25;0.25;;;16.90;99.90;;;17.26;100.00;100368.41;4960613;28;20207;-64
2022/08/14 03:59:52;;;;;;;0.10;0.10;;;;;;;17.19;100.00;100369.44;4946394;28;20212;-64
2022/08/14 04:02:40;;;;;;;0.20;0.20;;;;;;;17.20;100.00;100374.75;4945325;28;20216;-64
2022/08/14 04:05:41;;;;;;;0.20;0.20;;;;;;;17.34;100.00;100365.59;4972160;28;20235;-64
2022/08/14 04:08:40;;;;;;;0.20;0.20;;;17.30;99.90;;;17.19;100.00;100361.41;4956692;28;20209;-63
2022/08/14 04:11:29;;;;;;;0.20;0.20;;;;;;;17.10;100.00;100370.50;4958298;28;20217;-63
2022/08/14 04:14:17;;;;;;;0.30;0.30;;;16.90;99.90;;;17.04;100.00;100375.94;4973247;28;20200;-63
2022/08/14 04:17:06;;;;;;;0.20;0.20;;;17.30;99.90;;;17.11;100.00;100366.03;4957545;28;20193;-64
2022/08/14 04:20:02;;;;;;;0.30;0.30;;;;;;;17.04;100.00;100378.63;4954336;28;20208;-63
2022/08/14 04:22:52;;;;;;;0.28;0.28;;;;;;;17.04;100.00;100385.75;4936865;28;20227;-63
2022/08/14 04:25:42;;;;;;;0.30;0.30;;;17.00;99.90;;;16.98;100.00;100372.50;4954269;28;20236;-63
2022/08/14 04:28:31;;;;;;;0.35;0.35;;;17.00;99.90;;;16.72;100.00;100368.47;4975723;28;20201;-64
2022/08/14 04:31:41;;;;;;;0.10;0.10;;;;;;;16.64;100.00;100391.72;4977208;28;20200;-63
2022/08/14 04:34:50;;;;;;;0.30;0.30;;;;;;;16.60;100.00;100398.00;4976680;28;20240;-63
2022/08/14 04:43:52;;;;;;;0.20;0.20;;;16.50;99.90;;;16.66;100.00;100399.72;4948866;28;20233;-63
2022/08/14 04:48:11;;;;;;;0.28;0.28;;;17.00;99.90;;;16.70;100.00;100393.44;4954182;28;20228;-63
2022/08/14 04:49:49;;;;;;;0.30;0.30;;;;;;;16.82;100.00;100414.59;4969526;28;20669;-63
2022/08/14 04:52:48;;;;;;;0.40;0.40;;;;;;;16.94;100.00;100422.44;4966699;28;20204;-64
2022/08/14 04:55:48;;;;;;;0.45;0.45;;;17.00;99.90;;;17.24;100.00;100408.53;4960429;28;20228;-64
2022/08/14 04:58:41;;;;;;;0.40;0.40;;;16.80;99.90;;;17.20;100.00;100403.25;4956549;28;20205;-64
2022/08/14 05:01:32;;;;;;;0.30;0.30;;;;;;;17.35;100.00;100392.28;4967864;28;20204;-63
2022/08/14 05:04:27;;;;;;;0.40;0.40;;;17.00;99.90;;;17.36;100.00;100398.50;4964197;28;20204;-64
2022/08/14 05:07:15;;;;;;;0.50;0.50;;;17.00;99.90;;;17.51;100.00;100388.41;4971826;28;20200;-63
2022/08/14 05:10:04;;;;;;;0.30;0.30;;;17.20;99.90;;;17.60;100.00;100384.66;4950213;28;20203;-63
2022/08/14 05:13:01;;;;;;;1.17;0.80;;;;;;;17.42;100.00;100401.06;4959119;28;20209;-64
2022/08/14 05:16:02;;;;;;;0.40;0.40;;;;;;;17.38;100.00;100404.72;4937781;28;20232;-64
2022/08/14 05:18:54;;;;;;;0.50;0.50;;;17.60;99.90;;;17.41;100.00;100410.00;4955536;28;20209;-64
2022/08/14 05:22:02;;;;;;;0.22;0.22;;;16.90;99.90;;;17.52;100.00;100387.47;4949878;28;20197;-63
2022/08/14 05:25:05;;;;;;;0.52;0.52;;;17.20;99.90;;;17.90;100.00;100415.25;4961420;28;20220;-64
2022/08/14 05:27:58;;;;;;;0.30;0.30;;;;;;;18.18;100.00;100416.44;4966508;28;20657;-63
2022/08/14 05:30:52;;;;;;;0.30;0.30;;;17.70;99.90;;;18.26;100.00;100436.81;4970375;28;20212;-64
2022/08/14 05:33:41;;;;;;;0.50;0.50;;;;;;;18.46;100.00;100435.44;4955282;28;20201;-63
2022/08/14 05:36:41;;;;;;;0.50;0.50;;;18.30;99.90;;;18.45;100.00;100440.84;4957579;28;20587;-64
2022/08/14 05:39:39;;;;;;;0.60;0.60;;;18.10;99.90;;;18.59;100.00;100444.06;4971119;28;20216;-64
2022/08/14 05:42:28;;;;;;;0.30;0.30;;;18.70;99.90;;;18.58;100.00;100441.44;4962165;28;20224;-64
2022/08/14 05:45:21;;;;;;;0.50;0.50;;;;;;;18.68;100.00;100441.22;4960795;28;20590;-64
2022/08/14 05:48:15;;;;;;;0.40;0.40;;;17.80;99.90;;;18.86;100.00;100440.75;4974880;28;20208;-64
2022/08/14 05:51:25;;;;;;;0.50;0.50;;;18.40;99.90;;;18.96;100.00;100433.38;4976411;28;20196;-64
2022/08/14 05:54:14;;;;;;;0.43;0.43;;;;;;;19.03;100.00;100431.41;4966311;28;20676;-64
2022/08/14 05:57:14;;;;;;;0.30;0.30;;;18.30;99.90;;;19.03;100.00;100440.34;4980819;28;20707;-64
2022/08/14 06:00:03;;;;;;;0.50;0.50;;;18.50;99.90;;;19.18;100.00;100431.00;4996231;28;20208;-64
2022/08/14 06:02:55;;;;;;;0.40;0.40;;;19.10;99.90;;;19.20;100.00;100434.53;4983964;28;20216;-64
2022/08/14 06:05:46;;;;;;;0.30;0.30;;;18.70;99.90;;;19.31;100.00;100434.25;4959260;28;20229;-64
2022/08/14 06:08:39;;;;;;;0.30;0.30;;;;;;;19.50;100.00;100438.19;4953230;28;20208;-63
2022/08/14 06:11:29;;;;;;;0.40;0.40;;;;;;;19.64;100.00;100437.88;4948883;28;20227;-63
2022/08/14 06:14:19;;;;;;;0.30;0.30;;;;;;;19.79;100.00;100432.06;4937416;28;20224;-63
2022/08/14 06:17:11;;;;;;;0.30;0.30;;;;;;;20.00;100.00;100434.13;4958608;28;20213;-63
2022/08/14 06:20:13;;;;;;;0.20;0.20;;;;;;;20.15;100.00;100432.78;4950898;28;20216;-63
2022/08/14 06:23:02;;;;;;;0.20;0.20;;;;;;;20.22;100.00;100406.63;4948108;28;20221;-63
2022/08/14 06:25:50;;;;;;;0.17;0.17;;;;;;;20.36;100.00;100399.91;4967556;28;20723;-63
2022/08/14 06:28:40;;;;;;;0.98;0.80;;;19.70;99.90;;;20.52;100.00;100396.75;4939748;28;20213;-63
2022/08/14 06:31:32;;;;;;;0.57;0.57;;;19.60;99.90;;;20.65;100.00;100384.69;4954001;28;20205;-63
2022/08/14 06:34:21;;;;;;;0.30;0.30;;;;;;;20.72;100.00;100388.91;4964248;28;20209;-63
2022/08/14 06:37:45;;;;;;;0.30;0.30;;;20.10;99.90;;;20.88;100.00;100386.63;4964580;28;20212;-63
2022/08/14 06:40:36;;;;;;;0.35;0.35;;;20.30;99.90;;;20.97;100.00;100372.88;4961098;28;20223;-63
2022/08/14 06:43:29;;;;;;;1.48;1.48;;;20.90;99.90;;;21.17;100.00;100367.66;4970178;28;20227;-64
2022/08/14 06:46:20;;;;;;;0.20;0.20;;;;;;;21.36;100.00;100379.56;4949085;28;20229;-63
2022/08/14 06:49:24;;;;;;;0.40;0.40;;;;;;;21.38;100.00;100366.94;4954122;28;20212;-64
2022/08/14 06:52:13;;;;;;;0.25;0.25;;;20.70;99.90;;;21.60;100.00;100358.94;4966970;28;20220;-64
2022/08/14 06:55:05;;;;;;;0.10;0.10;;;21.10;99.90;;;21.71;100.00;100345.97;4972762;28;20233;-64
2022/08/14 06:57:55;;;;;;;0.40;0.40;;;20.80;99.90;;;21.84;100.00;100340.97;4964387;28;20208;-63
2022/08/14 07:07:21;;;;;;;0.10;0.10;;;21.40;99.90;;;22.12;100.00;100292.38;4970140;28;20205;-63
2022/08/14 07:10:11;;;;;;;0.10;0.10;;;;;;;22.17;98.13;100268.81;4960582;28;20222;-63
2022/08/14 07:13:04;;;;;;;0.32;0.32;;;;;;;22.37;97.69;100269.78;4974053;28;20220;-63
2022/08/14 07:15:56;;;;;;;0.10;0.10;;;22.20;99.90;;;22.33;96.78;100250.19;4954994;28;20239;-63
2022/08/14 07:18:46;;;;;;;0.90;0.90;;;;;;;22.82;95.43;100250.78;4971362;28;20219;-63
2022/08/14 07:21:38;;;;;;;0.10;0.10;;;;;;;22.76;96.65;100241.13;4959597;28;20215;-63
2022/08/14 07:24:27;;;;;;;0.13;0.13;;;;;;;23.02;93.24;100228.34;4971254;28;20220;-63
2022/08/14 07:27:19;;;;;;;0.10;0.10;;;;;;;23.25;93.71;100234.41;4942947;28;20224;-63
2022/08/14 07:30:09;;;;;;;0.10;0.10;;;;;;;23.28;93.09;100214.53;4960510;28;20223;-63
2022/08/14 07:33:20;;;;;;;0.98;0.75;;;23.00;99.90;;;23.31;92.43;100204.47;4956399;28;20197;-63
2022/08/14 07:36:17;;;;;;;0.10;0.10;;;23.50;99.90;;;23.33;92.62;100184.63;4962118;28;20227;-63
2022/08/14 07:39:17;;;;;;;0.00;0.00;;;22.70;99.90;;;23.94;91.42;100210.47;4954996;28;20217;-63
2022/08/14 07:42:15;;;;;;;0.10;0.10;;;;;;;24.14;89.71;100165.34;4961919;28;20219;-63
2022/08/14 07:45:11;;;;;;;0.10;0.10;;;23.60;99.90;;;24.36;89.57;100170.56;4972741;28;20236;-63
2022/08/14 07:47:59;;;;;;;0.10;0.10;;;;;;;24.91;88.67;100173.94;4971595;28;20615;-64
2022/08/14 07:50:49;;;;;;;0.85;0.82;;;25.10;99.90;;;24.58;88.43;100112.56;4961404;28;20216;-64
2022/08/14 07:53:39;;;;;;;0.47;0.47;;;23.90;99.90;;;24.18;87.52;100058.88;4955640;28;20223;-63
2022/08/14 07:56:28;;;;;;;0.40;0.40;;;24.60;99.90;;;24.40;87.83;100083.84;4970538;28;20220;-63
2022/08/14 07:59:36;;;;;;;0.10;0.10;;;;;;;24.89;87.68;100103.69;4961866;28;20208;-63
2022/08/14 08:02:30;;;;;;;0.10;0.10;;;24.70;99.90;;;24.87;86.55;100077.69;4963130;28;20216;-63
2022/08/14 08:05:23;;;;;;;0.30;0.30;;;25.10;99.90;;;25.13;86.78;100081.69;4959898;28;20236;-63
2022/08/14 08:08:11;;;;;;;0.05;0.05;;;25.60;99.90;;;25.64;84.76;100079.63;4981771;28;20215;-63
2022/08/14 08:11:15;;;;;;;0.40;0.40;;;26.20;99.90;;;25.08;83.10;99984.53;4960519;28;20215;-63
2022/08/14 08:14:06;;;;;;;0.17;0.17;;;28.80;99.90;;;25.44;83.96;100029.34;4985005;28;20206;-63
2022/08/14 08:17:05;;;;;;;0.52;0.45;;;;;;;25.47;81.95;99975.03;4972035;28;20590;-63
2022/08/14 08:19:56;;;;;;;0.10;0.10;;;;;;;25.56;81.63;99968.19;4967676;28;20214;-63
2022/08/14 08:22:45;;;;;;;0.10;0.10;;;;;;;25.46;83.03;99967.88;4960215;28;20218;-63
2022/08/14 08:25:41;;;;;;;0.00;0.00;;;25.90;99.90;;;25.95;83.19;99998.31;4972787;28;20227;-63
2022/08/14 08:28:30;;;;;;;0.00;0.00;;;25.90;99.90;;;25.81;83.48;99960.34;4972515;28;20208;-63
2022/08/14 08:31:21;;;;;;;0.20;0.20;;;;;;;25.82;82.58;99948.56;4947727;28;20231;-63
2022/08/14 08:34:20;;;;;;;0.10;0.10;;;26.30;99.90;;;26.64;80.08;99954.22;4949875;28;20208;-63
2022/08/14 08:37:13;;;;;;;0.10;0.10;;;27.30;99.90;;;26.61;78.31;99902.03;4957306;28;20200;-63
2022/08/14 08:40:02;;;;;;;0.20;0.20;;;;;;;26.41;77.15;99855.38;4971103;28;20196;-63
2022/08/14 08:42:53;;;;;;;0.17;0.17;;;;;;;26.83;78.25;99891.50;4955381;28;20216;-63
2022/08/14 08:46:01;;;;;;;0.10;0.10;;;26.10;99.90;;;26.83;78.49;99863.50;4965457;28;20216;-63
2022/08/14 08:48:56;;;;;;;0.15;0.15;;;26.40;99.90;;;26.89;77.57;99827.81;4986285;28;20211;-63
2022/08/14 08:51:42;;;;;;;0.00;0.00;;;26.80;99.90;;;27.07;77.68;99823.88;4946789;28;20208;-64
2022/08/14 08:54:34;;;;;;;0.22;0.20;;;27.00;99.90;;;27.26;76.02;99793.59;4984298;28;20215;-64
2022/08/14 08:57:23;;;;;;;0.10;0.10;;;27.90;99.90;;;27.19;75.18;99763.31;4969950;28;20209;-63
2022/08/14 09:00:17;;;;;;;0.10;0.10;;;27.30;99.90;;;27.23;74.09;99725.94;4964525;28;20199;-63
2022/08/14 09:03:19;;;;;;;0.30;0.30;;;27.20;99.90;;;27.21;74.23;99700.75;4976528;28;20218;-64
2022/08/14 09:06:08;;;;;;;0.10;0.10;;;;;;;27.70;73.48;99723.47;4960458;28;20235;-63
2022/08/14 09:09:28;;;;;;;0.20;0.20;;;29.10;99.90;;;27.95;72.67;99694.47;4979485;28;20211;-63
2022/08/14 09:12:21;;;;;;;0.20;0.20;;;28.30;99.90;;;27.97;72.17;99646.31;4961045;28;20215;-64
2022/08/14 09:15:10;;;;;;;0.20;0.20;;;28.80;99.90;;;28.24;72.32;99671.44;4949462;28;20224;-63
2022/08/14 09:18:00;;;;;;;0.10;0.10;;;29.10;99.90;;;28.94;71.69;99682.34;4970675;28;20219;-64
2022/08/14 09:20:53;;;;;;;0.10;0.10;;;29.60;99.90;;;28.30;70.69;99558.63;4949654;28;20200;-63
2022/08/14 09:23:45;;;;;;;0.10;0.10;;;28.30;99.90;;;27.94;70.15;99510.66;4967730;28;20215;-63
2022/08/14 09:26:53;;;;;;;0.00;0.00;;;28.80;99.90;;;28.49;70.63;99549.88;4973174;28;20231;-63
2022/08/14 09:29:42;;;;;;;0.10;0.10;;;;;;;28.99;69.97;99576.69;4957315;28;20204;-63
2022/08/14 09:33:07;;;;;;;0.60;0.45;;;29.30;99.90;;;28.77;69.50;99499.59;4961818;28;20210;-63
2022/08/14 09:36:20;;;;;;;0.13;0.13;;;29.40;99.90;;;28.92;68.18;99482.94;4987774;28;20231;-64
2022/08/14 09:39:56;;;;;;;0.15;0.15;;;30.80;99.90;;;29.29;66.92;99482.59;4960967;28;20207;-63
2022/08/14 09:43:13;;;;;;;0.10;0.10;;;30.50;99.90;;;29.58;65.77;99475.59;4959146;28;20219;-63
2022/08/14 09:46:09;;;;;;;0.10;0.10;;;;;;;29.10;63.76;99358.03;4975184;28;20220;-63
2022/08/14 09:49:06;;;;;;;0.17;0.17;;;30.20;99.90;;;29.54;65.22;99389.69;4954227;28;20216;-63
2022/08/14 09:52:10;;;;;;;0.20;0.20;;;30.30;99.90;;;29.20;64.22;99312.69;4970719;28;20217;-63
2022/08/14 09:55:22;;;;;;;0.05;0.05;;;30.70;99.90;;;29.73;65.50;99385.38;4962120;28;20224;-63
2022/08/14 09:58:19;;;;;;;0.10;0.10;;;31.10;99.90;;;30.76;62.47;99384.34;4961096;28;20223;-63
2022/08/14 10:01:19;;;;;;;0.68;0.68;;;31.80;99.90;;;30.17;63.01;99294.25;4959944;28;20219;-63
2022/08/14 10:04:23;;;;;;;0.10;0.10;;;32.10;99.50;;;30.38;60.99;99239.63;4958102;28;20235;-63
2022/08/14 10:07:50;;;;;;;0.10;0.10;;;32.40;99.90;;;30.21;63.30;99222.09;4960097;28;20543;-63
2022/08/14 10:10:41;;;;;;;0.32;0.32;;;32.60;99.90;;;30.75;60.22;99202.50;4988611;28;20208;-64
2022/08/14 10:13:36;;;;;;;0.20;0.20;;;;;;;30.27;62.49;99131.53;4970099;28;20211;-64
2022/08/14 10:16:46;;;;;;;0.30;0.30;;;31.70;97.00;;;30.43;61.01;99106.41;4972973;28;20235;-64
2022/08/14 10:19:47;;;;;;;0.32;0.32;;;31.90;95.90;;;29.76;58.83;98965.47;4957641;28;20580;-64
2022/08/14 10:22:35;;;;;;;0.20;0.20;;;30.60;95.90;;;29.97;58.75;98987.16;4954275;28;20208;-64
2022/08/14 10:25:50;;;;;;;0.20;0.20;;;31.00;99.20;;;31.55;59.33;99149.31;4957100;28;20253;-64
2022/08/14 10:28:43;;;;;;;0.47;0.47;;;31.70;96.10;;;31.23;57.63;99043.22;4964216;28;20651;-64
2022/08/14 10:31:59;;;;;;;0.40;0.40;;;32.70;95.40;;;31.44;57.67;99008.31;4982325;28;20215;-64
2022/08/14 10:34:48;;;;;;;0.50;0.30;;;;;;;31.71;57.25;99006.56;4961395;28;20239;-64
2022/08/14 10:37:48;;;;;;;0.30;0.30;;;32.40;96.00;;;31.40;58.68;98971.38;4988453;28;20208;-64
2022/08/14 10:40:37;;;;;;;0.10;0.10;;;31.90;92.60;;;31.17;55.85;98907.25;4956410;28;20211;-64
2022/08/14 10:43:42;;;;;;;0.00;0.00;;;32.00;91.10;;;30.93;54.34;98816.88;4964901;28;20200;-64
2022/08/14 10:46:51;;;;;;;0.10;0.10;;;32.10;91.70;;;31.87;55.25;98912.94;4963367;28;20239;-65
2022/08/14 10:50:00;;;;;;;0.10;0.10;;;32.20;90.40;;;31.42;54.58;98807.31;4980439;28;20211;-65
2022/08/14 10:52:58;;;;;;;0.10;0.10;;;32.10;90.90;;;31.62;55.53;98816.19;4975943;28;20204;-65
2022/08/14 10:55:58;;;;;;;0.00;0.00;;;32.20;91.20;;;31.97;55.85;98834.41;4976002;28;20714;-65
2022/08/14 10:59:05;;;;;;;0.70;0.70;;;32.80;90.40;;;32.32;54.17;98819.75;4962758;28;20207;-65
2022/08/14 11:01:58;;;;;;;0.40;0.35;;;;;;;31.94;53.84;98750.84;4953150;28;20220;-65
2022/08/14 11:05:16;;;;;;;0.43;0.20;;;32.60;90.90;;;32.04;55.69;98772.59;4964646;28;20243;-65
2022/08/14 11:08:06;;;;;;;0.30;0.30;;;;;;;32.47;54.55;98793.50;4956808;28;20208;-65
2022/08/14 11:11:04;;;;;;;0.20;0.20;;;34.20;89.20;;;33.47;55.25;98866.56;4962290;28;20234;-65
2022/08/14 11:13:56;;;;;;;0.20;0.20;;;33.30;85.50;;;32.33;53.79;98699.25;4981404;28;20210;-65
2022/08/14 11:16:47;;;;;;;0.30;0.30;;;32.60;87.50;;;32.98;54.58;98773.34;4949436;28;20726;-65
2022/08/14 11:19:40;;;;;;;0.10;0.10;;;32.80;84.90;;;32.56;52.68;98694.03;4957880;28;20226;-65
2022/08/14 11:22:30;;;;;;;0.20;0.20;;;33.80;85.00;;;32.93;51.83;98711.91;4961072;28;20218;-65
2022/08/14 11:25:44;;;;;;;0.30;0.30;;;33.30;83.90;;;32.80;51.95;98684.16;4971632;28;20238;-65
2022/08/14 11:28:44;;;;;;;0.28;0.28;;;33.00;81.00;;;32.75;52.13;98662.75;4951293;28;20227;-65
2022/08/14 11:31:47;;;;;;;0.30;0.30;;;33.30;79.00;;;32.57;50.66;98608.16;4961111;28;20211;-65
2022/08/14 11:34:40;;;;;;;0.50;0.45;;;;;;;33.21;53.60;98723.38;4954397;28;20204;-65
2022/08/14 11:37:32;;;;;;;0.20;0.20;;;;;;;32.92;52.04;98653.53;4958013;28;20200;-65
2022/08/14 11:40:34;;;;;;;0.30;0.30;;;34.50;75.10;;;33.40;49.29;98652.66;4941731;28;20220;-66
2022/08/14 11:43:24;;;;;;;0.20;0.20;;;34.20;74.60;;;32.59;49.61;98573.28;4957496;28;20215;-65
2022/08/14 11:46:20;;;;;;;0.10;0.10;;;33.60;76.00;;;33.33;48.88;98626.13;4975986;28;20244;-65
2022/08/14 11:49:26;;;;;;;0.20;0.20;;;33.80;76.20;;;32.93;49.60;98556.69;4961345;28;20675;-65
2022/08/14 11:52:33;;;;;;;0.20;0.20;;;33.50;76.70;;;32.98;50.76;98573.44;4963960;28;20212;-65
2022/08/14 11:55:37;;;;;;;0.17;0.17;;;33.90;76.30;;;33.65;49.34;98612.31;4968281;28;20247;-65
2022/08/14 11:58:34;;;;;;;0.20;0.20;;;32.90;71.90;;;33.08;50.63;98545.88;4955394;28;20207;-65
2022/08/14 12:01:29;;;;;;;0.20;0.20;;;34.00;76.00;;;34.40;50.62;98677.72;4954464;28;20226;-65
2022/08/14 12:04:20;;;;;;;0.40;0.40;;;34.90;73.60;;;35.23;48.54;98690.69;4953295;28;20207;-65
2022/08/14 12:07:19;;;;;;;0.20;0.20;;;35.00;72.50;;;34.66;49.03;98604.09;4956780;28;20203;-65
2022/08/14 12:10:09;;;;;;;0.35;0.35;;;;;;;33.98;48.36;98525.34;4970492;28;20216;-65
2022/08/14 12:13:17;;;;;;;0.20;0.20;;;34.50;67.60;;;33.67;47.42;98464.97;4959477;28;20214;-65
2022/08/14 12:16:11;;;;;;;0.22;0.22;;;34.00;71.80;;;34.78;49.41;98601.75;4957485;28;20220;-65
2022/08/14 12:19:09;;;;;;;0.22;0.22;;;34.70;68.60;;;34.51;47.61;98507.13;4983718;28;20212;-65
2022/08/14 12:21:57;;;;;;;0.52;0.52;;;35.60;67.90;;;34.21;47.18;98472.38;4958852;28;20208;-65
2022/08/14 12:24:49;;;;;;;0.43;0.30;;;34.60;67.60;;;33.96;48.90;98480.78;4961141;28;20203;-65
2022/08/14 12:27:54;;;;;;;0.20;0.20;;;34.60;70.00;;;33.99;48.18;98479.56;4947078;28;20239;-65
2022/08/14 12:30:48;;;;;;;0.30;0.30;;;34.70;69.10;;;34.22;47.76;98502.34;4966917;28;20207;-65
2022/08/14 12:33:59;;;;;;;0.90;0.88;;;;;;;33.39;46.18;98376.94;4963567;28;20211;-65
2022/08/14 12:36:48;;;;;;;0.40;0.40;;;;;;;34.28;46.84;98484.31;4972951;28;20223;-65
2022/08/14 12:39:36;;;;;;;0.82;0.70;;;;;;;35.33;48.24;98577.78;4965462;28;20212;-65
2022/08/14 12:42:37;;;;;;;0.60;0.60;;;35.70;65.10;;;35.10;46.24;98501.72;4978049;28;20211;-65
2022/08/14 12:45:35;;;;;;;0.32;0.32;;;;;;;35.17;46.25;98502.72;4968250;28;20247;-64
2022/08/14 12:48:27;;;;;;;0.40;0.40;;;;;;;35.09;46.54;98483.53;4941593;28;20212;-65
2022/08/14 12:51:24;;;;;;;0.50;0.43;;;36.10;67.10;;;35.01;46.21;98458.91;4955661;28;20219;-65
2022/08/14 12:54:19;;;;;;;0.40;0.40;;;35.70;63.30;;;35.11;47.46;98475.09;4974136;28;20222;-65